sensor_id;sensor_type;location;lat;lon;timestamp;P1;durP1;ratioP1;P2;durP2;ratioP2
33094;SDS011;19459;53.044;8.910;2022-08-14T00:00:11;10.18;;;8.05;;
33094;SDS011;19459;53.044;8.910;2022-08-14T00:02:40;11.13;;;8.27;;
33094;SDS011;19459;53.044;8.910;2022-08-14T00:05:07;12.70;;;8.57;;
33094;SDS011;19459;53.044;8.910;2022-08-14T00:07:36;9.93;;;7.70;;
33094;SDS011;19459;53.044;8.910;2022-08-14T00:10:03;12.75;;;8.85;;
33094;SDS011;19459;53.044;8.910;2022-08-14T00:12:31;11.18;;;8.18;;
33094;SDS011;19459;53.044;8.910;2022-08-14T00:15:02;12.55;;;8.10;;
33094;SDS011;19459;53.044;8.910;2022-08-14T00:17:39;9.38;;;8.05;;
33094;SDS011;19459;53.044;8.910;2022-08-14T00:20:05;9.73;;;8.48;;
33094;SDS011;19459;53.044;8.910;2022-08-14T00:22:32;9.52;;;8.15;;
33094;SDS011;19459;53.044;8.910;2022-08-14T00:24:59;8.90;;;7.95;;
33094;SDS011;19459;53.044;8.910;2022-08-14T00:27:24;10.43;;;7.93;;
33094;SDS011;19459;53.044;8.910;2022-08-14T00:29:50;11.02;;;7.88;;
33094;SDS011;19459;53.044;8.910;2022-08-14T00:32:16;15.65;;;8.20;;
33094;SDS011;19459;53.044;8.910;2022-08-14T00:34:42;9.95;;;7.50;;
33094;SDS011;19459;53.044;8.910;2022-08-14T00:37:08;10.95;;;7.78;;
33094;SDS011;19459;53.044;8.910;2022-08-14T00:39:33;12.65;;;8.23;;
33094;SDS011;19459;53.044;8.910;2022-08-14T00:41:59;9.52;;;7.90;;
33094;SDS011;19459;53.044;8.910;2022-08-14T00:44:25;13.30;;;8.68;;
33094;SDS011;19459;53.044;8.910;2022-08-14T00:46:51;10.20;;;8.68;;
33094;SDS011;19459;53.044;8.910;2022-08-14T00:49:17;11.68;;;7.50;;
33094;SDS011;19459;53.044;8.910;2022-08-14T00:51:43;14.55;;;8.77;;
33094;SDS011;19459;53.044;8.910;2022-08-14T00:54:09;9.93;;;7.70;;
33094;SDS011;19459;53.044;8.910;2022-08-14T00:56:37;11.57;;;7.88;;
33094;SDS011;19459;53.044;8.910;2022-08-14T00:59:04;10.45;;;8.48;;
33094;SDS011;19459;53.044;8.910;2022-08-14T01:01:29;8.88;;;7.60;;
33094;SDS011;19459;53.044;8.910;2022-08-14T01:03:57;9.05;;;7.53;;
33094;SDS011;19459;53.044;8.910;2022-08-14T01:06:25;11.02;;;7.60;;
33094;SDS011;19459;53.044;8.910;2022-08-14T01:08:53;10.13;;;8.05;;
33094;SDS011;19459;53.044;8.910;2022-08-14T01:11:19;8.80;;;7.55;;
33094;SDS011;19459;53.044;8.910;2022-08-14T01:13:46;12.65;;;8.35;;
33094;SDS011;19459;53.044;8.910;2022-08-14T01:16:16;11.10;;;8.52;;
33094;SDS011;19459;53.044;8.910;2022-08-14T01:18:44;12.27;;;7.80;;
33094;SDS011;19459;53.044;8.910;2022-08-14T01:23:57;9.35;;;7.88;;
33094;SDS011;19459;53.044;8.910;2022-08-14T01:26:24;10.10;;;8.32;;
33094;SDS011;19459;53.044;8.910;2022-08-14T01:28:52;9.68;;;8.68;;
33094;SDS011;19459;53.044;8.910;2022-08-14T01:31:28;12.48;;;8.07;;
33094;SDS011;19459;53.044;8.910;2022-08-14T01:33:59;12.27;;;8.30;;
33094;SDS011;19459;53.044;8.910;2022-08-14T01:36:29;10.55;;;7.85;;
33094;SDS011;19459;53.044;8.910;2022-08-14T01:39:00;12.95;;;8.27;;
33094;SDS011;19459;53.044;8.910;2022-08-14T01:41:32;9.23;;;8.27;;
33094;SDS011;19459;53.044;8.910;2022-08-14T01:44:00;9.55;;;8.60;;
33094;SDS011;19459;53.044;8.910;2022-08-14T01:46:40;12.68;;;9.27;;
33094;SDS011;19459;53.044;8.910;2022-08-14T01:49:12;10.43;;;9.43;;
33094;SDS011;19459;53.044;8.910;2022-08-14T01:51:42;11.98;;;9.35;;
33094;SDS011;19459;53.044;8.910;2022-08-14T01:54:15;11.68;;;9.20;;
33094;SDS011;19459;53.044;8.910;2022-08-14T01:56:47;11.15;;;8.63;;
33094;SDS011;19459;53.044;8.910;2022-08-14T02:01:46;20.95;;;9.77;;
33094;SDS011;19459;53.044;8.910;2022-08-14T02:04:16;10.80;;;8.52;;
33094;SDS011;19459;53.044;8.910;2022-08-14T02:06:47;10.93;;;8.80;;
33094;SDS011;19459;53.044;8.910;2022-08-14T02:09:17;13.73;;;9.73;;
33094;SDS011;19459;53.044;8.910;2022-08-14T02:11:45;13.75;;;9.63;;
33094;SDS011;19459;53.044;8.910;2022-08-14T02:14:12;11.63;;;8.65;;
33094;SDS011;19459;53.044;8.910;2022-08-14T02:16:42;12.30;;;9.63;;
33094;SDS011;19459;53.044;8.910;2022-08-14T02:19:13;12.88;;;9.13;;
33094;SDS011;19459;53.044;8.910;2022-08-14T02:21:42;13.40;;;8.60;;
33094;SDS011;19459;53.044;8.910;2022-08-14T02:24:11;10.77;;;9.15;;
33094;SDS011;19459;53.044;8.910;2022-08-14T02:26:39;13.80;;;9.13;;
33094;SDS011;19459;53.044;8.910;2022-08-14T02:29:11;11.88;;;9.25;;
33094;SDS011;19459;53.044;8.910;2022-08-14T02:31:44;9.23;;;7.65;;
33094;SDS011;19459;53.044;8.910;2022-08-14T02:36:44;10.35;;;8.32;;
33094;SDS011;19459;53.044;8.910;2022-08-14T02:39:13;10.90;;;9.60;;
33094;SDS011;19459;53.044;8.910;2022-08-14T02:41:39;10.77;;;8.18;;
33094;SDS011;19459;53.044;8.910;2022-08-14T02:44:07;9.25;;;8.35;;
33094;SDS011;19459;53.044;8.910;2022-08-14T02:46:38;10.00;;;7.93;;
33094;SDS011;19459;53.044;8.910;2022-08-14T02:49:06;12.68;;;8.90;;
33094;SDS011;19459;53.044;8.910;2022-08-14T02:51:33;14.35;;;9.27;;
33094;SDS011;19459;53.044;8.910;2022-08-14T02:53:59;15.45;;;9.50;;
33094;SDS011;19459;53.044;8.910;2022-08-14T02:56:26;9.50;;;7.97;;
33094;SDS011;19459;53.044;8.910;2022-08-14T02:58:55;10.45;;;8.48;;
33094;SDS011;19459;53.044;8.910;2022-08-14T03:01:24;10.23;;;8.60;;
33094;SDS011;19459;53.044;8.910;2022-08-14T03:03:53;9.07;;;8.05;;
33094;SDS011;19459;53.044;8.910;2022-08-14T03:06:21;8.80;;;7.70;;
33094;SDS011;19459;53.044;8.910;2022-08-14T03:08:53;10.38;;;8.07;;
33094;SDS011;19459;53.044;8.910;2022-08-14T03:11:19;11.45;;;8.05;;
33094;SDS011;19459;53.044;8.910;2022-08-14T03:13:47;9.98;;;8.32;;
33094;SDS011;19459;53.044;8.910;2022-08-14T03:16:22;9.57;;;8.13;;
33094;SDS011;19459;53.044;8.910;2022-08-14T03:18:51;14.38;;;8.45;;
33094;SDS011;19459;53.044;8.910;2022-08-14T03:21:20;11.40;;;8.32;;
33094;SDS011;19459;53.044;8.910;2022-08-14T03:23:49;11.07;;;8.15;;
33094;SDS011;19459;53.044;8.910;2022-08-14T03:26:28;13.20;;;8.18;;
33094;SDS011;19459;53.044;8.910;2022-08-14T03:28:54;10.38;;;8.55;;
33094;SDS011;19459;53.044;8.910;2022-08-14T03:31:20;9.25;;;8.25;;
33094;SDS011;19459;53.044;8.910;2022-08-14T03:33:47;9.98;;;8.32;;
33094;SDS011;19459;53.044;8.910;2022-08-14T03:36:15;12.05;;;8.77;;
33094;SDS011;19459;53.044;8.910;2022-08-14T03:38:45;15.18;;;9.25;;
33094;SDS011;19459;53.044;8.910;2022-08-14T03:41:23;12.73;;;8.60;;
33094;SDS011;19459;53.044;8.910;2022-08-14T03:43:55;11.45;;;9.05;;
33094;SDS011;19459;53.044;8.910;2022-08-14T03:48:57;12.70;;;9.40;;
33094;SDS011;19459;53.044;8.910;2022-08-14T03:51:25;11.70;;;9.07;;
33094;SDS011;19459;53.044;8.910;2022-08-14T03:53:52;11.80;;;8.98;;
33094;SDS011;19459;53.044;8.910;2022-08-14T03:56:21;13.82;;;9.20;;
33094;SDS011;19459;53.044;8.910;2022-08-14T03:58:50;13.88;;;9.32;;
33094;SDS011;19459;53.044;8.910;2022-08-14T04:01:20;9.63;;;8.63;;
33094;SDS011;19459;53.044;8.910;2022-08-14T04:03:47;11.65;;;9.60;;
33094;SDS011;19459;53.044;8.910;2022-08-14T04:06:15;9.93;;;8.93;;
33094;SDS011;19459;53.044;8.910;2022-08-14T04:08:44;12.85;;;9.43;;
33094;SDS011;19459;53.044;8.910;2022-08-14T04:11:11;11.57;;;9.05;;
33094;SDS011;19459;53.044;8.910;2022-08-14T04:13:38;13.32;;;9.10;;
33094;SDS011;19459;53.044;8.910;2022-08-14T04:16:07;11.80;;;9.13;;
33094;SDS011;19459;53.044;8.910;2022-08-14T04:18:40;14.88;;;10.98;;
33094;SDS011;19459;53.044;8.910;2022-08-14T04:21:09;10.77;;;8.75;;
33094;SDS011;19459;53.044;8.910;2022-08-14T04:23:37;10.23;;;9.18;;
33094;SDS011;19459;53.044;8.910;2022-08-14T04:26:05;13.15;;;9.50;;
33094;SDS011;19459;53.044;8.910;2022-08-14T04:28:35;9.95;;;8.82;;
33094;SDS011;19459;53.044;8.910;2022-08-14T04:31:02;11.23;;;10.07;;
33094;SDS011;19459;53.044;8.910;2022-08-14T04:33:28;11.18;;;9.05;;
33094;SDS011;19459;53.044;8.910;2022-08-14T04:35:55;10.60;;;9.52;;
33094;SDS011;19459;53.044;8.910;2022-08-14T04:38:21;14.43;;;10.35;;
33094;SDS011;19459;53.044;8.910;2022-08-14T04:41:05;14.23;;;9.52;;
33094;SDS011;19459;53.044;8.910;2022-08-14T04:43:50;10.07;;;9.07;;
33094;SDS011;19459;53.044;8.910;2022-08-14T04:46:17;11.50;;;10.35;;
33094;SDS011;19459;53.044;8.910;2022-08-14T04:48:45;11.27;;;10.00;;
33094;SDS011;19459;53.044;8.910;2022-08-14T04:51:14;14.48;;;10.02;;
33094;SDS011;19459;53.044;8.910;2022-08-14T04:53:44;12.68;;;9.93;;
33094;SDS011;19459;53.044;8.910;2022-08-14T04:56:14;10.95;;;9.52;;
33094;SDS011;19459;53.044;8.910;2022-08-14T04:58:44;12.52;;;11.20;;
33094;SDS011;19459;53.044;8.910;2022-08-14T05:01:11;12.60;;;10.27;;
33094;SDS011;19459;53.044;8.910;2022-08-14T05:03:39;12.32;;;9.82;;
33094;SDS011;19459;53.044;8.910;2022-08-14T05:06:06;14.40;;;10.70;;
33094;SDS011;19459;53.044;8.910;2022-08-14T05:08:35;12.52;;;10.13;;
33094;SDS011;19459;53.044;8.910;2022-08-14T05:11:02;12.15;;;10.35;;
33094;SDS011;19459;53.044;8.910;2022-08-14T05:13:30;13.57;;;10.52;;
33094;SDS011;19459;53.044;8.910;2022-08-14T05:15:58;11.30;;;10.20;;
33094;SDS011;19459;53.044;8.910;2022-08-14T05:18:26;14.68;;;10.45;;
33094;SDS011;19459;53.044;8.910;2022-08-14T05:20:56;19.52;;;10.60;;
33094;SDS011;19459;53.044;8.910;2022-08-14T05:23:25;15.35;;;10.25;;
33094;SDS011;19459;53.044;8.910;2022-08-14T05:25:54;13.70;;;10.23;;
33094;SDS011;19459;53.044;8.910;2022-08-14T05:28:26;14.05;;;10.30;;
33094;SDS011;19459;53.044;8.910;2022-08-14T05:30:58;10.30;;;9.25;;
33094;SDS011;19459;53.044;8.910;2022-08-14T05:33:28;10.00;;;9.02;;
33094;SDS011;19459;53.044;8.910;2022-08-14T05:35:57;14.32;;;10.05;;
33094;SDS011;19459;53.044;8.910;2022-08-14T05:38:26;14.82;;;9.93;;
33094;SDS011;19459;53.044;8.910;2022-08-14T05:41:06;10.98;;;9.55;;
33094;SDS011;19459;53.044;8.910;2022-08-14T05:43:36;13.18;;;9.73;;
33094;SDS011;19459;53.044;8.910;2022-08-14T05:46:04;17.30;;;9.55;;
33094;SDS011;19459;53.044;8.910;2022-08-14T05:48:30;13.27;;;9.73;;
33094;SDS011;19459;53.044;8.910;2022-08-14T05:50:57;14.25;;;9.32;;
33094;SDS011;19459;53.044;8.910;2022-08-14T05:53:24;10.70;;;9.38;;
33094;SDS011;19459;53.044;8.910;2022-08-14T05:55:51;12.73;;;9.10;;
33094;SDS011;19459;53.044;8.910;2022-08-14T05:58:19;11.18;;;10.00;;
33094;SDS011;19459;53.044;8.910;2022-08-14T06:00:45;10.57;;;9.23;;
33094;SDS011;19459;53.044;8.910;2022-08-14T06:03:12;11.98;;;9.35;;
33094;SDS011;19459;53.044;8.910;2022-08-14T06:05:42;14.25;;;9.88;;
33094;SDS011;19459;53.044;8.910;2022-08-14T06:08:16;10.80;;;8.60;;
33094;SDS011;19459;53.044;8.910;2022-08-14T06:10:51;11.55;;;9.30;;
33094;SDS011;19459;53.044;8.910;2022-08-14T06:13:26;9.85;;;8.85;;
33094;SDS011;19459;53.044;8.910;2022-08-14T06:16:03;11.45;;;8.35;;
33094;SDS011;19459;53.044;8.910;2022-08-14T06:18:29;11.65;;;8.38;;
33094;SDS011;19459;53.044;8.910;2022-08-14T06:20:55;15.55;;;8.05;;
33094;SDS011;19459;53.044;8.910;2022-08-14T06:23:21;11.18;;;8.50;;
33094;SDS011;19459;53.044;8.910;2022-08-14T06:25:47;10.75;;;8.45;;
33094;SDS011;19459;53.044;8.910;2022-08-14T06:28:16;9.43;;;8.02;;
33094;SDS011;19459;53.044;8.910;2022-08-14T06:30:44;9.98;;;8.55;;
33094;SDS011;19459;53.044;8.910;2022-08-14T06:33:10;13.80;;;8.95;;
33094;SDS011;19459;53.044;8.910;2022-08-14T06:35:36;10.88;;;7.90;;
33094;SDS011;19459;53.044;8.910;2022-08-14T06:38:02;8.32;;;7.28;;
33094;SDS011;19459;53.044;8.910;2022-08-14T06:40:30;13.38;;;8.05;;
33094;SDS011;19459;53.044;8.910;2022-08-14T06:43:03;13.50;;;8.43;;
33094;SDS011;19459;53.044;8.910;2022-08-14T06:45:36;13.65;;;7.80;;
33094;SDS011;19459;53.044;8.910;2022-08-14T06:48:14;9.02;;;8.05;;
33094;SDS011;19459;53.044;8.910;2022-08-14T06:50:48;10.52;;;7.95;;
33094;SDS011;19459;53.044;8.910;2022-08-14T06:53:19;9.00;;;7.40;;
33094;SDS011;19459;53.044;8.910;2022-08-14T06:55:46;8.68;;;7.40;;
33094;SDS011;19459;53.044;8.910;2022-08-14T06:58:15;9.05;;;7.30;;
33094;SDS011;19459;53.044;8.910;2022-08-14T07:00:43;11.00;;;7.75;;
33094;SDS011;19459;53.044;8.910;2022-08-14T07:03:29;11.40;;;7.95;;
33094;SDS011;19459;53.044;8.910;2022-08-14T07:06:15;9.30;;;7.35;;
33094;SDS011;19459;53.044;8.910;2022-08-14T07:08:41;11.35;;;7.90;;
33094;SDS011;19459;53.044;8.910;2022-08-14T07:11:08;10.85;;;7.20;;
33094;SDS011;19459;53.044;8.910;2022-08-14T07:13:35;7.50;;;6.80;;
33094;SDS011;19459;53.044;8.910;2022-08-14T07:16:02;8.45;;;7.57;;
33094;SDS011;19459;53.044;8.910;2022-08-14T07:18:30;8.02;;;7.15;;
33094;SDS011;19459;53.044;8.910;2022-08-14T07:20:58;11.73;;;6.60;;
33094;SDS011;19459;53.044;8.910;2022-08-14T07:23:25;8.23;;;7.43;;
33094;SDS011;19459;53.044;8.910;2022-08-14T07:25:55;9.48;;;7.80;;
33094;SDS011;19459;53.044;8.910;2022-08-14T07:28:27;9.27;;;7.55;;
33094;SDS011;19459;53.044;8.910;2022-08-14T07:31:00;8.68;;;6.95;;
33094;SDS011;19459;53.044;8.910;2022-08-14T07:33:30;6.80;;;6.10;;
33094;SDS011;19459;53.044;8.910;2022-08-14T07:36:15;10.82;;;6.68;;
33094;SDS011;19459;53.044;8.910;2022-08-14T07:38:43;10.02;;;7.40;;
33094;SDS011;19459;53.044;8.910;2022-08-14T07:41:10;8.15;;;7.38;;
33094;SDS011;19459;53.044;8.910;2022-08-14T07:43:37;8.65;;;6.68;;
33094;SDS011;19459;53.044;8.910;2022-08-14T07:46:04;7.70;;;6.90;;
33094;SDS011;19459;53.044;8.910;2022-08-14T07:48:31;10.52;;;7.90;;
33094;SDS011;19459;53.044;8.910;2022-08-14T07:51:04;7.88;;;7.07;;
33094;SDS011;19459;53.044;8.910;2022-08-14T07:53:30;9.93;;;7.50;;
33094;SDS011;19459;53.044;8.910;2022-08-14T07:55:57;11.13;;;7.35;;
33094;SDS011;19459;53.044;8.910;2022-08-14T07:58:23;9.50;;;7.90;;
33094;SDS011;19459;53.044;8.910;2022-08-14T08:00:49;8.65;;;7.53;;
33094;SDS011;19459;53.044;8.910;2022-08-14T08:03:21;11.35;;;7.78;;
33094;SDS011;19459;53.044;8.910;2022-08-14T08:05:51;10.18;;;7.15;;
33094;SDS011;19459;53.044;8.910;2022-08-14T08:08:17;8.95;;;7.75;;
33094;SDS011;19459;53.044;8.910;2022-08-14T08:10:44;7.88;;;7.05;;
33094;SDS011;19459;53.044;8.910;2022-08-14T08:13:11;8.32;;;7.00;;
33094;SDS011;19459;53.044;8.910;2022-08-14T08:15:47;9.82;;;7.47;;
33094;SDS011;19459;53.044;8.910;2022-08-14T08:18:15;13.52;;;8.18;;
33094;SDS011;19459;53.044;8.910;2022-08-14T08:20:43;8.48;;;6.95;;
33094;SDS011;19459;53.044;8.910;2022-08-14T08:23:11;9.20;;;7.85;;
33094;SDS011;19459;53.044;8.910;2022-08-14T08:25:40;10.93;;;7.47;;
33094;SDS011;19459;53.044;8.910;2022-08-14T08:28:10;10.05;;;7.55;;
33094;SDS011;19459;53.044;8.910;2022-08-14T08:30:41;10.13;;;7.85;;
33094;SDS011;19459;53.044;8.910;2022-08-14T08:33:21;7.75;;;7.00;;
33094;SDS011;19459;53.044;8.910;2022-08-14T08:35:50;11.18;;;7.63;;
33094;SDS011;19459;53.044;8.910;2022-08-14T08:38:17;7.78;;;7.07;;
33094;SDS011;19459;53.044;8.910;2022-08-14T08:40:48;7.70;;;6.90;;
33094;SDS011;19459;53.044;8.910;2022-08-14T08:43:23;8.13;;;6.82;;
33094;SDS011;19459;53.044;8.910;2022-08-14T08:46:04;8.00;;;6.85;;
33094;SDS011;19459;53.044;8.910;2022-08-14T08:48:50;7.57;;;6.80;;
33094;SDS011;19459;53.044;8.910;2022-08-14T08:52:15;10.75;;;8.02;;
33094;SDS011;19459;53.044;8.910;2022-08-14T08:54:54;8.40;;;7.60;;
33094;SDS011;19459;53.044;8.910;2022-08-14T08:57:20;8.95;;;7.43;;
33094;SDS011;19459;53.044;8.910;2022-08-14T08:59:45;11.77;;;8.15;;
33094;SDS011;19459;53.044;8.910;2022-08-14T09:02:11;8.00;;;7.10;;
33094;SDS011;19459;53.044;8.910;2022-08-14T09:04:42;10.80;;;6.88;;
33094;SDS011;19459;53.044;8.910;2022-08-14T09:07:09;8.60;;;7.00;;
33094;SDS011;19459;53.044;8.910;2022-08-14T09:09:36;9.48;;;7.47;;
33094;SDS011;19459;53.044;8.910;2022-08-14T09:12:15;11.27;;;8.35;;
33094;SDS011;19459;53.044;8.910;2022-08-14T09:14:43;9.63;;;7.57;;
33094;SDS011;19459;53.044;8.910;2022-08-14T09:17:13;8.68;;;7.38;;
33094;SDS011;19459;53.044;8.910;2022-08-14T09:19:42;8.88;;;7.93;;
33094;SDS011;19459;53.044;8.910;2022-08-14T09:22:09;8.32;;;7.32;;
33094;SDS011;19459;53.044;8.910;2022-08-14T09:24:37;11.20;;;8.02;;
33094;SDS011;19459;53.044;8.910;2022-08-14T09:27:04;7.50;;;6.75;;
33094;SDS011;19459;53.044;8.910;2022-08-14T09:29:30;9.57;;;7.32;;
33094;SDS011;19459;53.044;8.910;2022-08-14T09:31:59;8.30;;;7.45;;
33094;SDS011;19459;53.044;8.910;2022-08-14T09:34:44;11.50;;;6.50;;
33094;SDS011;19459;53.044;8.910;2022-08-14T09:37:30;9.55;;;7.60;;
33094;SDS011;19459;53.044;8.910;2022-08-14T09:43:30;12.02;;;8.07;;
33094;SDS011;19459;53.044;8.910;2022-08-14T09:46:05;13.85;;;8.32;;
33094;SDS011;19459;53.044;8.910;2022-08-14T09:48:32;11.65;;;7.82;;
33094;SDS011;19459;53.044;8.910;2022-08-14T09:50:59;9.55;;;7.55;;
33094;SDS011;19459;53.044;8.910;2022-08-14T09:53:33;11.68;;;8.10;;
33094;SDS011;19459;53.044;8.910;2022-08-14T09:56:13;7.63;;;6.88;;
33094;SDS011;19459;53.044;8.910;2022-08-14T09:58:39;11.40;;;8.57;;
33094;SDS011;19459;53.044;8.910;2022-08-14T10:01:13;10.50;;;7.95;;
33094;SDS011;19459;53.044;8.910;2022-08-14T10:03:48;8.93;;;8.02;;
33094;SDS011;19459;53.044;8.910;2022-08-14T10:06:17;12.80;;;8.30;;
33094;SDS011;19459;53.044;8.910;2022-08-14T10:11:27;10.98;;;8.32;;
33094;SDS011;19459;53.044;8.910;2022-08-14T10:14:19;11.23;;;7.47;;
33094;SDS011;19459;53.044;8.910;2022-08-14T10:16:58;10.20;;;7.60;;
33094;SDS011;19459;53.044;8.910;2022-08-14T10:19:26;11.98;;;7.03;;
33094;SDS011;19459;53.044;8.910;2022-08-14T10:21:59;9.63;;;7.18;;
33094;SDS011;19459;53.044;8.910;2022-08-14T10:24:32;10.25;;;7.60;;
33094;SDS011;19459;53.044;8.910;2022-08-14T10:27:12;8.87;;;7.97;;
33094;SDS011;19459;53.044;8.910;2022-08-14T10:29:42;10.15;;;7.90;;
33094;SDS011;19459;53.044;8.910;2022-08-14T10:32:14;11.38;;;7.85;;
33094;SDS011;19459;53.044;8.910;2022-08-14T10:34:40;13.40;;;7.97;;
33094;SDS011;19459;53.044;8.910;2022-08-14T10:37:10;9.00;;;7.88;;
33094;SDS011;19459;53.044;8.910;2022-08-14T10:39:38;8.48;;;7.53;;
33094;SDS011;19459;53.044;8.910;2022-08-14T10:44:34;9.80;;;7.95;;
33094;SDS011;19459;53.044;8.910;2022-08-14T10:47:06;8.93;;;7.40;;
33094;SDS011;19459;53.044;8.910;2022-08-14T10:49:36;7.97;;;7.20;;
33094;SDS011;19459;53.044;8.910;2022-08-14T10:52:21;8.30;;;7.15;;
33094;SDS011;19459;53.044;8.910;2022-08-14T10:55:04;8.95;;;7.35;;
33094;SDS011;19459;53.044;8.910;2022-08-14T11:00:12;7.50;;;6.72;;
33094;SDS011;19459;53.044;8.910;2022-08-14T11:02:41;7.45;;;6.72;;
33094;SDS011;19459;53.044;8.910;2022-08-14T11:13:19;10.90;;;6.22;;
33094;SDS011;19459;53.044;8.910;2022-08-14T11:15:51;8.60;;;6.87;;
33094;SDS011;19459;53.044;8.910;2022-08-14T11:18:24;6.78;;;6.18;;
33094;SDS011;19459;53.044;8.910;2022-08-14T11:20:52;11.00;;;6.95;;
33094;SDS011;19459;53.044;8.910;2022-08-14T11:23:34;11.63;;;7.53;;
33094;SDS011;19459;53.044;8.910;2022-08-14T11:26:02;8.13;;;6.90;;
33094;SDS011;19459;53.044;8.910;2022-08-14T11:28:33;7.57;;;6.82;;
33094;SDS011;19459;53.044;8.910;2022-08-14T11:31:03;9.73;;;6.85;;
33094;SDS011;19459;53.044;8.910;2022-08-14T11:33:32;9.32;;;5.80;;
33094;SDS011;19459;53.044;8.910;2022-08-14T11:36:00;6.47;;;5.80;;
33094;SDS011;19459;53.044;8.910;2022-08-14T11:38:40;7.32;;;6.60;;
33094;SDS011;19459;53.044;8.910;2022-08-14T11:41:09;13.77;;;6.65;;
33094;SDS011;19459;53.044;8.910;2022-08-14T11:43:37;8.32;;;6.30;;
33094;SDS011;19459;53.044;8.910;2022-08-14T11:46:08;6.80;;;6.05;;
33094;SDS011;19459;53.044;8.910;2022-08-14T11:48:43;8.60;;;6.20;;
33094;SDS011;19459;53.044;8.910;2022-08-14T11:51:24;9.40;;;6.27;;
33094;SDS011;19459;53.044;8.910;2022-08-14T11:56:19;12.27;;;6.05;;
33094;SDS011;19459;53.044;8.910;2022-08-14T11:58:49;6.78;;;6.18;;
33094;SDS011;19459;53.044;8.910;2022-08-14T12:01:22;8.63;;;6.95;;
33094;SDS011;19459;53.044;8.910;2022-08-14T12:03:53;7.53;;;6.35;;
33094;SDS011;19459;53.044;8.910;2022-08-14T12:06:23;7.72;;;6.93;;
33094;SDS011;19459;53.044;8.910;2022-08-14T12:08:50;8.48;;;7.28;;
33094;SDS011;19459;53.044;8.910;2022-08-14T12:11:18;10.45;;;6.53;;
33094;SDS011;19459;53.044;8.910;2022-08-14T12:13:45;9.38;;;7.07;;
33094;SDS011;19459;53.044;8.910;2022-08-14T12:16:12;8.57;;;6.38;;
33094;SDS011;19459;53.044;8.910;2022-08-14T12:18:45;10.15;;;7.38;;
33094;SDS011;19459;53.044;8.910;2022-08-14T12:21:22;8.77;;;6.95;;
33094;SDS011;19459;53.044;8.910;2022-08-14T12:24:06;8.55;;;6.75;;
33094;SDS011;19459;53.044;8.910;2022-08-14T12:26:33;9.30;;;7.40;;
33094;SDS011;19459;53.044;8.910;2022-08-14T12:29:13;10.20;;;6.78;;
33094;SDS011;19459;53.044;8.910;2022-08-14T12:31:40;10.55;;;6.68;;
33094;SDS011;19459;53.044;8.910;2022-08-14T12:34:11;8.57;;;6.95;;
33094;SDS011;19459;53.044;8.910;2022-08-14T12:36:38;10.25;;;7.38;;
33094;SDS011;19459;53.044;8.910;2022-08-14T12:39:15;11.63;;;7.35;;
33094;SDS011;19459;53.044;8.910;2022-08-14T12:41:51;10.07;;;7.57;;
33094;SDS011;19459;53.044;8.910;2022-08-14T12:44:31;9.18;;;7.20;;
33094;SDS011;19459;53.044;8.910;2022-08-14T12:47:06;8.40;;;6.88;;
33094;SDS011;19459;53.044;8.910;2022-08-14T12:49:46;10.43;;;7.20;;
33094;SDS011;19459;53.044;8.910;2022-08-14T12:52:25;11.95;;;7.32;;
33094;SDS011;19459;53.044;8.910;2022-08-14T12:55:02;9.43;;;6.80;;
33094;SDS011;19459;53.044;8.910;2022-08-14T12:57:40;9.95;;;6.68;;
33094;SDS011;19459;53.044;8.910;2022-08-14T13:00:10;12.40;;;7.40;;
33094;SDS011;19459;53.044;8.910;2022-08-14T13:02:42;7.88;;;7.07;;
33094;SDS011;19459;53.044;8.910;2022-08-14T13:05:10;12.75;;;7.82;;
33094;SDS011;19459;53.044;8.910;2022-08-14T13:07:38;9.95;;;6.57;;
33094;SDS011;19459;53.044;8.910;2022-08-14T13:10:06;12.32;;;7.20;;
33094;SDS011;19459;53.044;8.910;2022-08-14T13:12:40;10.73;;;7.88;;
33094;SDS011;19459;53.044;8.910;2022-08-14T13:15:08;8.43;;;6.38;;
33094;SDS011;19459;53.044;8.910;2022-08-14T13:17:47;10.02;;;6.78;;
33094;SDS011;19459;53.044;8.910;2022-08-14T13:20:22;9.27;;;7.10;;
33094;SDS011;19459;53.044;8.910;2022-08-14T13:22:50;9.48;;;6.80;;
33094;SDS011;19459;53.044;8.910;2022-08-14T13:25:20;8.45;;;6.03;;
33094;SDS011;19459;53.044;8.910;2022-08-14T13:27:54;9.65;;;6.93;;
33094;SDS011;19459;53.044;8.910;2022-08-14T13:30:23;10.98;;;7.03;;
33094;SDS011;19459;53.044;8.910;2022-08-14T13:32:54;8.23;;;7.35;;
33094;SDS011;19459;53.044;8.910;2022-08-14T13:35:22;7.75;;;6.70;;
33094;SDS011;19459;53.044;8.910;2022-08-14T13:37:48;11.07;;;6.85;;
33094;SDS011;19459;53.044;8.910;2022-08-14T13:40:18;13.18;;;7.28;;
33094;SDS011;19459;53.044;8.910;2022-08-14T13:42:47;7.97;;;6.78;;
33094;SDS011;19459;53.044;8.910;2022-08-14T13:45:16;8.90;;;6.63;;
33094;SDS011;19459;53.044;8.910;2022-08-14T13:47:45;8.68;;;6.95;;
33094;SDS011;19459;53.044;8.910;2022-08-14T13:50:12;8.48;;;7.57;;
33094;SDS011;19459;53.044;8.910;2022-08-14T13:52:41;10.35;;;6.90;;
33094;SDS011;19459;53.044;8.910;2022-08-14T13:55:18;8.40;;;6.93;;
33094;SDS011;19459;53.044;8.910;2022-08-14T13:57:50;8.45;;;6.85;;
33094;SDS011;19459;53.044;8.910;2022-08-14T14:00:16;9.50;;;6.20;;
33094;SDS011;19459;53.044;8.910;2022-08-14T14:02:43;8.30;;;6.72;;
33094;SDS011;19459;53.044;8.910;2022-08-14T14:05:15;8.40;;;7.15;;
33094;SDS011;19459;53.044;8.910;2022-08-14T14:07:44;8.77;;;6.38;;
33094;SDS011;19459;53.044;8.910;2022-08-14T14:10:12;7.40;;;6.68;;
33094;SDS011;19459;53.044;8.910;2022-08-14T14:12:40;8.45;;;7.13;;
33094;SDS011;19459;53.044;8.910;2022-08-14T14:15:15;9.85;;;7.35;;
33094;SDS011;19459;53.044;8.910;2022-08-14T14:17:43;8.52;;;6.75;;
33094;SDS011;19459;53.044;8.910;2022-08-14T14:20:12;8.13;;;6.30;;
33094;SDS011;19459;53.044;8.910;2022-08-14T14:22:45;8.38;;;6.78;;
33094;SDS011;19459;53.044;8.910;2022-08-14T14:25:13;10.25;;;6.85;;
33094;SDS011;19459;53.044;8.910;2022-08-14T14:27:42;8.30;;;7.50;;
33094;SDS011;19459;53.044;8.910;2022-08-14T14:30:13;7.82;;;7.00;;
33094;SDS011;19459;53.044;8.910;2022-08-14T14:32:41;8.40;;;6.97;;
33094;SDS011;19459;53.044;8.910;2022-08-14T14:35:16;9.60;;;7.15;;
33094;SDS011;19459;53.044;8.910;2022-08-14T14:37:46;10.70;;;9.23;;
33094;SDS011;19459;53.044;8.910;2022-08-14T14:40:13;17.33;;;11.18;;
33094;SDS011;19459;53.044;8.910;2022-08-14T14:42:44;13.13;;;9.45;;
33094;SDS011;19459;53.044;8.910;2022-08-14T14:45:15;7.20;;;6.40;;
33094;SDS011;19459;53.044;8.910;2022-08-14T14:47:44;7.50;;;6.70;;
33094;SDS011;19459;53.044;8.910;2022-08-14T14:50:13;7.43;;;6.68;;
33094;SDS011;19459;53.044;8.910;2022-08-14T14:52:40;8.20;;;6.47;;
33094;SDS011;19459;53.044;8.910;2022-08-14T14:55:07;9.32;;;6.55;;
33094;SDS011;19459;53.044;8.910;2022-08-14T14:57:36;7.25;;;6.55;;
33094;SDS011;19459;53.044;8.910;2022-08-14T15:00:04;7.13;;;6.45;;
33094;SDS011;19459;53.044;8.910;2022-08-14T15:02:43;6.65;;;5.95;;
33094;SDS011;19459;53.044;8.910;2022-08-14T15:05:18;8.60;;;5.75;;
33094;SDS011;19459;53.044;8.910;2022-08-14T15:07:46;8.18;;;5.88;;
33094;SDS011;19459;53.044;8.910;2022-08-14T15:10:15;11.38;;;6.65;;
33094;SDS011;19459;53.044;8.910;2022-08-14T15:12:43;8.43;;;6.35;;
33094;SDS011;19459;53.044;8.910;2022-08-14T15:15:10;8.65;;;6.57;;
33094;SDS011;19459;53.044;8.910;2022-08-14T15:17:37;10.25;;;6.82;;
33094;SDS011;19459;53.044;8.910;2022-08-14T15:20:04;10.50;;;6.53;;
33094;SDS011;19459;53.044;8.910;2022-08-14T15:22:39;8.90;;;6.03;;
33094;SDS011;19459;53.044;8.910;2022-08-14T15:25:05;7.63;;;5.60;;
33094;SDS011;19459;53.044;8.910;2022-08-14T15:27:37;7.28;;;6.47;;
33094;SDS011;19459;53.044;8.910;2022-08-14T15:30:05;9.68;;;6.57;;